This is the latest recevied weather packets stored in our database for station/object S53BL-10. If no packets are shown the sender has not sent any weather packets the latest 10 day(s).
| Time | Temp. | Humidity | Pressure | Rain* | Wind** | Luminosity | Snow |
|---|---|---|---|---|---|---|---|
| 1777789203 | 11.67° C | 73% | 1016.7 hPa | - | - | - | - |
| 1777788302 | 10.56° C | 77% | 1016.7 hPa | - | - | - | - |
| 1777787401 | 10° C | 78% | 1016.6 hPa | - | - | - | - |
| 1777786500 | 9.44° C | 77% | 1016.5 hPa | - | - | - | - |
| 1777785600 | 8.89° C | 76% | 1016.6 hPa | - | - | - | - |
| 1777784699 | 8.33° C | 78% | 1016.6 hPa | - | - | - | - |
| 1777783798 | 8.33° C | 79% | 1016.6 hPa | - | - | - | - |
| 1777782897 | 8.33° C | 77% | 1016.6 hPa | - | - | - | - |
| 1777781997 | 8.33° C | 78% | 1016.5 hPa | - | - | - | - |
| 1777781096 | 8.33° C | 77% | 1016.5 hPa | - | - | - | - |
| 1777780195 | 8.33° C | 79% | 1016.4 hPa | - | - | - | - |
| 1777779294 | 8.33° C | 78% | 1016.4 hPa | - | - | - | - |
| 1777778393 | 8.89° C | 77% | 1016.5 hPa | - | - | - | - |
| 1777777493 | 8.89° C | 76% | 1016.5 hPa | - | - | - | - |
| 1777776592 | 8.89° C | 76% | 1016.5 hPa | - | - | - | - |
| 1777775691 | 9.44° C | 76% | 1016.6 hPa | - | - | - | - |
| 1777769386 | 10.56° C | 68% | 1017 hPa | - | - | - | - |
| 1777762179 | 13.33° C | 57% | 1017.5 hPa | - | - | - | - |
| 1777761278 | 13.89° C | 54% | 1017.5 hPa | - | - | - | - |
| 1777760377 | 13.89° C | 52% | 1017.6 hPa | - | - | - | - |
| 1777759476 | 14.44° C | 51% | 1017.6 hPa | - | - | - | - |
| 1777758576 | 14.44° C | 50% | 1017.5 hPa | - | - | - | - |
| 1777757675 | 14.44° C | 51% | 1017.5 hPa | - | - | - | - |
| 1777756774 | 14.44° C | 52% | 1017.4 hPa | - | - | - | - |
| 1777755873 | 15° C | 52% | 1017.4 hPa | - | - | - | - |
* Rain since midnight (hover to see other rain measurements)
** Current wind speed in m/s (hover to see current wind gust speed)